Stations météo

Publicité
Bourg-St-Maurice, France (7497): Température de l'air & dewpoint: 10.01.2018 09:00:00 - 16.01.2018 09:00:00 (CET)Bourg-St-Maurice, France (7497): Température de l'air -20cm & Température de l'air -100cm: 10.01.2018 09:00:00 - 16.01.2018 09:00:00 (CET)Bourg-St-Maurice, France (7497): Vitesse du vent & gusts: 10.01.2018 09:00:00 - 16.01.2018 09:00:00 (CET)Bourg-St-Maurice, France (7497): Direction du vent: 10.01.2018 09:00:00 - 16.01.2018 09:00:00 (CET)Bourg-St-Maurice, France (7497): Ensoleillement: 10.01.2018 09:00:00 - 16.01.2018 09:00:00 (CET)Bourg-St-Maurice, France (7497): Quantités de précipitations: 10.01.2018 09:00:00 - 16.01.2018 09:00:00 (CET)
Date & Time tt [°C] td [°C] tt -20cm [°C] tt -100cm [°C] ff [km/h] ff [knt] fx [km/h] fx [knt] dd sd [min] rr [mm]
16.01.2018 09:00:00 - - - - - - - - - - -
16.01.2018 08:00:00 0,1 -0,3 0,7 3,8 0 0 5 3 N 0 1,0
16.01.2018 07:00:00 0,1 -0,3 0,7 3,8 0 0 4 2 N 0 0,8
16.01.2018 06:00:00 0,1 -0,2 0,7 3,8 2 1 6 3 E 0 1,0
16.01.2018 05:00:00 0,0 -0,4 0,7 3,8 0 0 8 5 N 0 1,1
16.01.2018 04:00:00 0,0 -0,4 0,7 3,9 0 0 5 3 N 0 1,2
16.01.2018 03:00:00 0,1 -0,3 0,7 3,8 0 0 5 3 N 0 0,6
16.01.2018 02:00:00 0,2 -0,4 0,7 3,8 0 0 3 2 N 0 0,6
16.01.2018 01:00:00 0,3 -0,3 0,7 3,8 0 0 3 1 N 0 0,6
16.01.2018 00:00:00 0,4 -0,5 0,7 3,8 0 0 5 3 N 0 0,6
15.01.2018 23:00:00 0,6 -0,3 0,7 3,8 3 2 8 4 NNW 0 1,0
15.01.2018 22:00:00 1,0 -0,9 0,7 3,9 0 0 7 4 N 0 0,4
15.01.2018 21:00:00 1,8 -2,5 0,7 3,9 3 2 12 7 SSE 0 0,0
15.01.2018 20:00:00 1,9 -2,4 0,7 3,8 3 1 7 4 SW 0 0,0
15.01.2018 19:00:00 2,6 -3,3 0,7 3,9 4 2 11 6 N 0 0,0
15.01.2018 18:00:00 3,2 -3,6 0,7 3,8 4 2 8 4 NW 0 0,0
15.01.2018 17:00:00 3,8 -2,0 0,7 3,9 2 1 5 3 W 0 0,0
15.01.2018 16:00:00 6,7 -3,6 0,7 3,9 2 1 4 2 SSW 0 0,0
15.01.2018 15:00:00 7,5 -5,3 0,7 3,9 0 0 6 3 N 0 0,0
15.01.2018 14:00:00 8,4 -4,8 0,7 3,8 2 1 7 4 SSW 0 0,0
15.01.2018 13:00:00 8,3 -5,9 0,7 3,9 2 1 5 3 S 0 0,0
15.01.2018 12:00:00 5,5 -5,5 0,7 3,8 0 0 5 3 N 0 0,0
15.01.2018 11:00:00 3,0 -4,2 0,7 3,9 3 1 5 3 ENE 0 0,0
15.01.2018 10:00:00 0,0 -4,3 0,7 3,8 0 0 5 3 N 0 0,0
15.01.2018 09:00:00 -0,7 -4,8 0,7 3,9 5 3 8 4 NW 0 0,0
15.01.2018 08:00:00 -1,4 -4,4 0,7 3,9 6 3 7 4 N 0 0,0
15.01.2018 07:00:00 -1,2 -4,9 0,7 3,9 4 2 6 4 NNW 0 0,0
15.01.2018 06:00:00 -0,5 -4,4 0,7 3,8 0 0 5 3 N 0 0,0
15.01.2018 05:00:00 -0,2 -3,9 0,7 3,8 0 0 5 3 N 0 0,0
15.01.2018 04:00:00 -0,1 -4,5 0,7 3,9 4 2 6 4 N 0 0,0
15.01.2018 03:00:00 -0,1 -4,7 0,7 3,8 3 1 5 3 N 0 0,0
15.01.2018 02:00:00 0,0 -5,0 0,7 3,9 3 1 7 4 N 0 0,0
15.01.2018 01:00:00 -0,2 -4,6 0,7 3,8 2 1 4 2 NNW 0 0,0
15.01.2018 00:00:00 -0,2 -5,0 0,7 3,8 0 0 4 2 N 0 0,0
14.01.2018 23:00:00 -0,2 -5,2 0,7 3,9 0 0 5 3 N 0 0,0
14.01.2018 22:00:00 -0,2 -5,2 0,7 3,9 4 2 6 3 N 0 0,0
14.01.2018 21:00:00 -0,4 -4,8 0,7 3,9 3 1 6 3 NNW 0 0,0
14.01.2018 20:00:00 -0,7 -4,9 0,7 3,8 3 2 6 3 N 0 0,0
14.01.2018 19:00:00 -0,4 -5,2 0,7 3,9 0 0 4 2 N 0 0,0
14.01.2018 18:00:00 -0,1 -5,5 0,7 3,9 2 1 5 3 NNE 0 0,0
14.01.2018 17:00:00 0,8 -5,7 0,7 3,8 3 2 7 4 NW 0 0,0
14.01.2018 16:00:00 1,8 -5,2 0,8 3,9 2 1 4 2 NW 0 0,0
14.01.2018 15:00:00 3,9 -5,9 0,7 3,9 0 0 4 2 N 0 0,0
14.01.2018 14:00:00 3,9 -7,3 0,7 3,8 0 0 7 4 N 0 0,0
14.01.2018 13:00:00 2,7 -6,4 0,7 3,9 0 0 5 3 N 0 0,0
14.01.2018 12:00:00 1,9 -6,0 0,8 3,8 0 0 7 4 N 0 0,0
14.01.2018 11:00:00 0,1 -6,8 0,8 3,9 0 0 9 5 N 0 0,0
14.01.2018 10:00:00 -2,3 -6,5 0,8 3,9 2 1 5 3 SSW 0 0,0
14.01.2018 09:00:00 -3,0 -7,2 0,8 3,9 4 2 8 4 NNE 0 0,0
14.01.2018 08:00:00 -3,7 -6,8 0,8 3,9 4 2 8 4 N 0 0,0
14.01.2018 07:00:00 -3,3 -6,8 0,8 3,9 3 1 9 5 N 0 0,0
14.01.2018 06:00:00 -2,9 -6,5 0,8 3,9 3 2 7 4 NNW 0 0,0
14.01.2018 05:00:00 -3,4 -6,7 0,8 3,9 0 0 5 3 N 0 0,0
14.01.2018 04:00:00 -3,2 -6,5 0,8 3,9 4 2 10 6 NW 0 0,0
14.01.2018 03:00:00 -3,4 -6,5 0,8 3,9 2 1 9 5 SW 0 0,0
14.01.2018 02:00:00 -2,4 -6,1 0,8 3,9 0 0 9 5 N 0 0,0
14.01.2018 01:00:00 -3,0 -6,3 0,8 3,9 3 2 9 5 NNE 0 0,0
14.01.2018 00:00:00 -2,7 -6,5 0,8 3,9 6 4 10 5 N 0 0,0
13.01.2018 23:00:00 -2,3 -6,3 0,8 3,9 0 0 8 5 N 0 0,0
13.01.2018 22:00:00 -2,0 -5,8 0,8 3,9 7 4 11 6 NNW 0 0,0
13.01.2018 21:00:00 -2,0 -5,7 0,8 3,9 3 1 11 6 WSW 0 0,0
13.01.2018 20:00:00 -1,6 -5,8 0,8 3,8 0 0 8 5 N 0 0,0
13.01.2018 19:00:00 -0,7 -5,1 0,8 3,8 5 3 10 5 N 0 0,0
13.01.2018 18:00:00 -0,2 -5,0 0,8 3,8 4 2 11 6 NW 0 0,0
13.01.2018 17:00:00 1,8 -5,4 0,8 3,8 4 2 8 5 NW 0 0,0
13.01.2018 16:00:00 4,0 -4,5 0,8 3,8 4 2 7 4 N 0 0,0
13.01.2018 15:00:00 5,5 -5,8 0,8 3,8 3 2 7 4 N 0 0,0
13.01.2018 14:00:00 7,1 -4,7 0,8 3,8 0 0 4 2 N 0 0,0
13.01.2018 13:00:00 4,6 -5,8 0,8 3,8 2 1 7 4 NNE 0 0,0
13.01.2018 12:00:00 3,9 -5,1 0,8 3,8 0 0 5 3 N 0 0,2
13.01.2018 11:00:00 0,0 -5,2 0,8 3,8 3 2 7 4 NNE 0 0,0
13.01.2018 10:00:00 -4,1 -6,7 0,9 3,8 4 2 7 4 NNW 0 0,0
13.01.2018 09:00:00 -4,5 -7,0 0,9 3,8 0 0 5 3 N 0 0,0
13.01.2018 08:00:00 -4,4 -7,0 0,9 3,8 0 0 7 4 N 0 0,0
13.01.2018 07:00:00 -4,9 -7,0 0,9 3,8 5 3 8 4 N 0 0,0
13.01.2018 06:00:00 -4,6 -6,9 0,9 3,8 2 1 6 3 N 0 0,0
13.01.2018 05:00:00 -4,6 -6,9 0,9 3,8 0 0 6 3 N 0 0,0
13.01.2018 04:00:00 -4,2 -6,7 0,9 3,8 4 2 5 3 NNE 0 0,0
13.01.2018 03:00:00 -4,2 -6,7 0,9 3,8 3 1 5 3 NNE 0 0,0
13.01.2018 02:00:00 -3,8 -6,4 0,9 3,8 0 0 3 2 N 0 0,0
13.01.2018 01:00:00 -3,4 -5,9 0,9 3,8 3 1 6 3 NW 0 0,0
13.01.2018 00:00:00 -3,2 -5,8 0,9 3,8 4 2 7 4 N 0 0,0
12.01.2018 23:00:00 -2,8 -5,6 0,9 3,8 5 3 8 4 NNW 0 0,0
12.01.2018 22:00:00 -2,5 -5,8 0,9 3,8 0 0 6 4 N 0 0,0
12.01.2018 21:00:00 -1,4 -5,4 0,9 3,8 5 3 10 5 NW 0 0,0
12.01.2018 20:00:00 -1,5 -5,2 0,9 3,8 2 1 5 3 N 0 0,0
12.01.2018 19:00:00 -0,6 -5,0 0,9 3,8 0 0 4 2 N 0 0,0
12.01.2018 18:00:00 0,5 -5,3 0,9 3,8 0 0 6 3 N 0 0,0
12.01.2018 17:00:00 1,7 -5,2 0,9 3,8 3 1 10 5 NNW 0 0,0
12.01.2018 16:00:00 2,7 -5,9 0,9 3,8 6 4 11 6 NNW 0 0,0
12.01.2018 15:00:00 5,6 -4,8 0,9 3,8 2 1 5 3 WNW 0 0,0
12.01.2018 14:00:00 5,5 -6,7 0,9 3,8 3 2 7 4 NE 0 0,0
12.01.2018 13:00:00 4,9 -7,0 0,9 3,8 0 0 6 3 N 0 0,0
12.01.2018 12:00:00 3,3 -7,2 1,0 3,8 0 0 6 3 N 0 0,0
12.01.2018 11:00:00 1,9 -4,6 1,0 3,8 0 0 4 2 N 0 0,0
12.01.2018 10:00:00 -3,2 -7,0 1,0 3,8 4 2 7 4 N 0 0,0
12.01.2018 09:00:00 -3,9 -6,8 1,0 3,8 4 2 5 3 NNE 0 0,0
12.01.2018 08:00:00 -3,4 -6,4 1,0 3,8 0 0 4 2 N 0 0,0
12.01.2018 07:00:00 -3,5 -6,8 1,0 3,8 0 0 6 4 N 0 0,0
12.01.2018 06:00:00 -3,2 -6,8 1,0 3,8 2 1 8 4 NW 0 0,0
12.01.2018 05:00:00 -3,0 -6,5 1,0 3,8 3 1 4 2 NW 0 0,0
12.01.2018 04:00:00 -2,5 -6,0 1,0 3,8 2 1 4 2 N 0 0,0
12.01.2018 03:00:00 -1,8 -6,0 1,0 3,8 3 2 8 4 N 0 0,0
12.01.2018 02:00:00 -1,7 -5,0 1,0 3,8 4 2 6 4 N 0 0,0
12.01.2018 01:00:00 -1,3 -5,0 1,0 3,8 2 1 5 3 NW 0 0,0
12.01.2018 00:00:00 -0,9 -4,3 1,0 3,8 3 2 6 3 NW 0 0,0
11.01.2018 23:00:00 -0,3 -2,8 1,0 3,8 4 2 6 3 N 0 0,0
11.01.2018 22:00:00 0,4 -2,5 1,0 3,8 3 1 6 3 N 0 0,0
11.01.2018 21:00:00 1,2 -1,5 1,0 3,8 4 2 5 3 N 0 0,0
11.01.2018 20:00:00 2,0 -1,6 1,0 3,8 3 2 5 3 N 0 0,0
11.01.2018 19:00:00 2,4 -1,8 1,0 3,7 0 0 4 2 N 0 0,0
11.01.2018 18:00:00 2,9 -1,8 1,0 3,8 2 1 4 2 W 0 0,0
11.01.2018 17:00:00 3,8 -1,6 1,0 3,7 0 0 3 2 N 0 0,0
11.01.2018 16:00:00 5,4 -3,9 1,0 3,7 0 0 3 1 N 0 0,0
11.01.2018 15:00:00 6,4 -4,1 0,9 3,7 0 0 8 4 N 0 0,0
11.01.2018 14:00:00 8,5 -3,1 0,9 3,7 2 1 5 3 SSW 0 0,0
11.01.2018 13:00:00 8,4 -3,8 0,9 3,7 2 1 6 3 S 0 0,0
11.01.2018 12:00:00 3,9 -2,3 0,9 3,7 0 0 6 3 N 0 0,0
11.01.2018 11:00:00 0,8 -2,1 1,0 3,7 0 0 5 3 N 0 0,0
11.01.2018 10:00:00 -1,2 -3,6 0,9 3,7 3 1 8 4 N 0 0,0
11.01.2018 09:00:00 -1,6 -3,2 1,0 3,7 0 0 5 3 N 0 0,0
11.01.2018 08:00:00 -1,3 -3,8 0,9 3,7 2 1 12 6 SSW 0 0,0
11.01.2018 07:00:00 -1,2 -2,6 0,9 3,7 7 4 9 5 NNW 0 0,0
11.01.2018 06:00:00 -1,6 -2,9 0,9 3,7 4 2 11 6 NNW 0 0,0
11.01.2018 05:00:00 -0,6 -2,3 1,0 3,7 3 2 5 3 NNW 0 0,0
11.01.2018 04:00:00 -0,2 -1,9 0,9 3,7 4 2 6 4 NNE 0 0,0
11.01.2018 03:00:00 -0,3 -2,4 1,0 3,7 0 0 6 3 N 0 0,0
11.01.2018 02:00:00 0,4 -2,0 0,9 3,7 4 2 10 5 NW 0 0,0
11.01.2018 01:00:00 0,2 -1,9 0,9 3,7 3 2 7 4 SW 0 0,0
11.01.2018 00:00:00 1,2 -2,4 0,9 3,7 4 2 9 5 NW 0 0,0
10.01.2018 23:00:00 0,5 -1,3 0,9 3,7 0 0 5 3 N 0 0,0
10.01.2018 22:00:00 0,5 -1,6 0,9 3,7 0 0 4 2 N 0 0,0
10.01.2018 21:00:00 1,0 -1,6 0,9 3,7 2 1 6 4 NW 0 0,0
10.01.2018 20:00:00 1,3 -1,3 0,9 3,7 5 3 6 3 NNE 0 0,0
10.01.2018 19:00:00 1,6 -1,8 0,9 3,7 2 1 5 3 W 0 0,0
10.01.2018 18:00:00 2,3 -1,7 0,9 3,6 5 3 8 4 NW 0 0,0
10.01.2018 17:00:00 3,1 -1,7 0,9 3,7 2 1 4 2 N 0 0,0
10.01.2018 16:00:00 4,4 -2,5 0,9 3,6 0 0 4 2 N 0 0,0
10.01.2018 15:00:00 4,1 -3,2 0,9 3,6 4 2 7 4 N 0 0,0
10.01.2018 14:00:00 3,7 -2,5 0,9 3,7 0 0 11 6 N 0 0,0
10.01.2018 13:00:00 3,4 -1,6 0,9 3,6 6 3 11 6 S 0 0,0
10.01.2018 12:00:00 2,2 -2,1 0,9 3,6 0 0 9 5 N 0 0,0
10.01.2018 11:00:00 0,3 -1,5 0,9 3,6 5 3 12 7 NNE 0 0,0
10.01.2018 10:00:00 -0,6 -2,5 0,9 3,7 4 2 11 6 NE 0 0,0
10.01.2018 09:00:00 -1,7 -3,0 0,9 3,6 3 2 5 3 N 0 0,0

tt = Température de l'air
td = dewpoint
tt -20cm = Température de l'air -20cm
tt -100cm = Température de l'air -100cm
ff = Vitesse du vent
fx = gusts
dd = Direction du vent
sd = Ensoleillement
rr = Quantités de précipitations

stations d'obs. à proximité